Minerva Virgo — SXXT — position and weather

sailwx.info

Track history (hours):
 
Tides and Currents Weather Stations Pressure Air Temp Water Temp Dewpoint Dewpoint Depression Visibility Wind Speed Wind Dir Waves Ship Positions

Minerva Virgo

Last reported at 2016-Jun-20 00:33 UTC. Time now 2016-Jun-28 15:02 UTC.
Position N 40°36' W 068°11'.
Warning: this ship's position is 8 days out of date.

Length 182 m; draft 8.5 m.

Type: Ship (hazmat cat C). MMSI: 240730000.

Date/timePositionNaut miles runAvg speedWind from/ knotsBaromVisibWave heightAir tempDewpointWater temp
2016-Jun-20 00:33N 40°36' W 068°11'15813.2
2016-Jun-19 12:33N 40°24' W 071°38'1313.5
2016-Jun-19 11:33N 40°24' W 071°56'1413.5
2016-Jun-19 10:33N 40°24' W 072°13'1513.4
2016-Jun-19 09:27N 40°24' W 072°33'1213.5
2016-Jun-19 08:33N 40°23' W 072°49'1313.3
2016-Jun-19 07:33N 40°23' W 073°06'1313.2
2016-Jun-19 06:33N 40°24' W 073°23'1413.8
2016-Jun-19 05:33N 40°26' W 073°42'1212.3
2016-Jun-19 04:33N 40°30' W 073°57'7 6.8
2016-Jun-19 03:33N 40°35' W 074°02'7 6.7
2016-Jun-19 02:33N 40°29' W 074°05'8 7.9
2016-Jun-19 01:33N 40°31' W 074°15'  
2016-Jun-16 13:33N 40°33' W 074°14'4 2.6
2016-Jun-16 12:06N 40°30' W 074°11'3 6.1
2016-Jun-16 11:33N 40°30' W 074°07'6 6.3
2016-Jun-16 10:33N 40°29' W 073°59'9 9.3
2016-Jun-16 09:33N 40°28' W 073°47'6 0.3
2016-Jun-15 12:25N 40°30' W 073°40'0 0.0
2016-Jun-15 02:07N 40°30' W 073°40'0 0.0
2016-Jun-14 22:31N 40°30' W 073°40'  
2016-Jun-11 21:16N 40°31' W 073°40'3 3.8
2016-Jun-11 20:33N 40°30' W 073°43'1211.6
2016-Jun-11 19:33N 40°31' W 073°58'9 8.9
2016-Jun-11 18:33N 40°39' W 074°04'0 0.0
2016-Jun-11 17:33N 40°39' W 074°04'0 0.0
2016-Jun-11 16:33N 40°39' W 074°04'0 0.1
2016-Jun-11 15:33N 40°39' W 074°04'0 0.1
2016-Jun-11 14:33N 40°39' W 074°04'0 0.1
2016-Jun-11 13:33N 40°38' W 074°04'0 0.0
2016-Jun-11 12:33N 40°38' W 074°04'1 0.9
2016-Jun-11 11:14N 40°39' W 074°05'0 0.0
2016-Jun-11 10:23N 40°39' W 074°05'0 0.0
2016-Jun-11 09:26N 40°39' W 074°05'0 0.0
2016-Jun-11 08:20N 40°39' W 074°05'0 0.0
2016-Jun-11 07:29N 40°39' W 074°05'0 0.0
2016-Jun-11 05:26N 40°39' W 074°05'0 0.0
2016-Jun-11 04:32N 40°39' W 074°05'0 0.0
2016-Jun-11 03:29N 40°39' W 074°05'0 0.0
2016-Jun-11 01:14N 40°39' W 074°05'0 0.0
2016-Jun-11 00:29N 40°39' W 074°05'  
Track history (hours):
 
Tides and Currents Weather Stations Pressure Air Temp Water Temp Dewpoint Dewpoint Depression Visibility Wind Speed Wind Dir Waves Ship Positions

Minerva Virgo

Last reported at 2016-Jun-20 00:33 UTC. Time now 2016-Jun-28 15:02 UTC.
Position N 40°36' W 068°11'.
Warning: this ship's position is 8 days out of date.

Length 182 m; draft 8.5 m.

Type: Ship (hazmat cat C). MMSI: 240730000.

Date/timePositionNaut miles runAvg speedWind from/ knotsBaromVisibWave heightAir tempDewpointWater temp
2016-Jun-20 00:33N 40°36' W 068°11'15813.2
2016-Jun-19 12:33N 40°24' W 071°38'1313.5
2016-Jun-19 11:33N 40°24' W 071°56'1413.5
2016-Jun-19 10:33N 40°24' W 072°13'1513.4
2016-Jun-19 09:27N 40°24' W 072°33'1213.5
2016-Jun-19 08:33N 40°23' W 072°49'1313.3
2016-Jun-19 07:33N 40°23' W 073°06'1313.2
2016-Jun-19 06:33N 40°24' W 073°23'1413.8
2016-Jun-19 05:33N 40°26' W 073°42'1212.3
2016-Jun-19 04:33N 40°30' W 073°57'7 6.8
2016-Jun-19 03:33N 40°35' W 074°02'7 6.7
2016-Jun-19 02:33N 40°29' W 074°05'8 7.9
2016-Jun-19 01:33N 40°31' W 074°15'  
2016-Jun-16 13:33N 40°33' W 074°14'4 2.6
2016-Jun-16 12:06N 40°30' W 074°11'3 6.1
2016-Jun-16 11:33N 40°30' W 074°07'6 6.3
2016-Jun-16 10:33N 40°29' W 073°59'9 9.3
2016-Jun-16 09:33N 40°28' W 073°47'6 0.3
2016-Jun-15 12:25N 40°30' W 073°40'0 0.0
2016-Jun-15 02:07N 40°30' W 073°40'0 0.0
2016-Jun-14 22:31N 40°30' W 073°40'  
2016-Jun-11 21:16N 40°31' W 073°40'3 3.8
2016-Jun-11 20:33N 40°30' W 073°43'1211.6
2016-Jun-11 19:33N 40°31' W 073°58'9 8.9
2016-Jun-11 18:33N 40°39' W 074°04'0 0.0
2016-Jun-11 17:33N 40°39' W 074°04'0 0.0
2016-Jun-11 16:33N 40°39' W 074°04'0 0.1
2016-Jun-11 15:33N 40°39' W 074°04'0 0.1
2016-Jun-11 14:33N 40°39' W 074°04'0 0.1
2016-Jun-11 13:33N 40°38' W 074°04'0 0.0
2016-Jun-11 12:33N 40°38' W 074°04'1 0.9
2016-Jun-11 11:14N 40°39' W 074°05'0 0.0
2016-Jun-11 10:23N 40°39' W 074°05'0 0.0
2016-Jun-11 09:26N 40°39' W 074°05'0 0.0
2016-Jun-11 08:20N 40°39' W 074°05'0 0.0
2016-Jun-11 07:29N 40°39' W 074°05'0 0.0
2016-Jun-11 05:26N 40°39' W 074°05'0 0.0
2016-Jun-11 04:32N 40°39' W 074°05'0 0.0
2016-Jun-11 03:29N 40°39' W 074°05'0 0.0
2016-Jun-11 01:14N 40°39' W 074°05'0 0.0
2016-Jun-11 00:29N 40°39' W 074°05'  

Dump ship's entire track history